sensor_id;sensor_type;location;lat;lon;timestamp;pressure;altitude;pressure_sealevel;temperature;humidity
17505;BME280;8870;50.950;11.762;2024-03-02T00:03:40;97285.34;;;6.37;100.00
17505;BME280;8870;50.950;11.762;2024-03-02T00:09:14;97281.31;;;6.33;100.00
17505;BME280;8870;50.950;11.762;2024-03-02T00:14:33;97272.94;;;6.28;100.00
17505;BME280;8870;50.950;11.762;2024-03-02T00:20:09;97268.22;;;6.22;100.00
17505;BME280;8870;50.950;11.762;2024-03-02T00:25:36;97273.06;;;6.18;100.00
17505;BME280;8870;50.950;11.762;2024-03-02T00:31:09;97268.22;;;6.13;100.00
17505;BME280;8870;50.950;11.762;2024-03-02T00:36:30;97263.88;;;6.12;100.00
17505;BME280;8870;50.950;11.762;2024-03-02T00:42:01;97265.03;;;6.10;100.00
17505;BME280;8870;50.950;11.762;2024-03-02T00:47:19;97257.31;;;6.07;100.00
17505;BME280;8870;50.950;11.762;2024-03-02T00:52:52;97261.16;;;6.04;100.00
17505;BME280;8870;50.950;11.762;2024-03-02T00:58:11;97261.16;;;6.04;100.00
17505;BME280;8870;50.950;11.762;2024-03-02T01:03:43;97265.16;;;6.00;100.00
17505;BME280;8870;50.950;11.762;2024-03-02T01:09:04;97264.44;;;5.98;100.00
17505;BME280;8870;50.950;11.762;2024-03-02T01:14:36;97263.75;;;5.96;100.00
17505;BME280;8870;50.950;11.762;2024-03-02T01:19:54;97264.59;;;5.96;100.00
17505;BME280;8870;50.950;11.762;2024-03-02T01:25:28;97263.63;;;5.97;100.00
17505;BME280;8870;50.950;11.762;2024-03-02T01:30:47;97274.44;;;5.96;100.00
17505;BME280;8870;50.950;11.762;2024-03-02T01:36:19;97262.06;;;5.95;100.00
17505;BME280;8870;50.950;11.762;2024-03-02T01:41:40;97260.75;;;5.91;100.00
17505;BME280;8870;50.950;11.762;2024-03-02T01:47:11;97267.78;;;5.92;100.00
17505;BME280;8870;50.950;11.762;2024-03-02T01:52:29;97258.41;;;5.96;100.00
17505;BME280;8870;50.950;11.762;2024-03-02T01:58:03;97269.09;;;5.96;100.00
17505;BME280;8870;50.950;11.762;2024-03-02T02:03:22;97270.78;;;5.97;100.00
17505;BME280;8870;50.950;11.762;2024-03-02T02:08:54;97268.28;;;5.95;100.00
17505;BME280;8870;50.950;11.762;2024-03-02T02:14:15;97274.09;;;5.91;100.00
17505;BME280;8870;50.950;11.762;2024-03-02T02:19:46;97281.75;;;5.85;100.00
17505;BME280;8870;50.950;11.762;2024-03-02T02:25:07;97280.06;;;5.84;100.00
17505;BME280;8870;50.950;11.762;2024-03-02T02:30:38;97286.22;;;5.77;100.00
17505;BME280;8870;50.950;11.762;2024-03-02T02:35:56;97281.81;;;5.67;100.00
17505;BME280;8870;50.950;11.762;2024-03-02T02:41:30;97274.81;;;5.66;100.00
17505;BME280;8870;50.950;11.762;2024-03-02T02:46:48;97276.66;;;5.66;100.00
17505;BME280;8870;50.950;11.762;2024-03-02T02:52:19;97279.28;;;5.58;100.00
17505;BME280;8870;50.950;11.762;2024-03-02T02:57:54;97279.94;;;5.60;100.00
17505;BME280;8870;50.950;11.762;2024-03-02T03:03:12;97280.63;;;5.62;100.00
17505;BME280;8870;50.950;11.762;2024-03-02T03:08:43;97272.63;;;5.62;100.00
17505;BME280;8870;50.950;11.762;2024-03-02T03:14:04;97278.81;;;5.62;100.00
17505;BME280;8870;50.950;11.762;2024-03-02T03:19:35;97278.63;;;5.64;100.00
17505;BME280;8870;50.950;11.762;2024-03-02T03:24:53;97272.00;;;5.68;100.00
17505;BME280;8870;50.950;11.762;2024-03-02T03:30:28;97287.38;;;5.74;100.00
17505;BME280;8870;50.950;11.762;2024-03-02T03:35:46;97273.41;;;5.80;100.00
17505;BME280;8870;50.950;11.762;2024-03-02T03:41:18;97285.13;;;5.88;100.00
17505;BME280;8870;50.950;11.762;2024-03-02T03:46:39;97281.28;;;5.90;100.00
17505;BME280;8870;50.950;11.762;2024-03-02T03:52:10;97288.81;;;5.95;100.00
17505;BME280;8870;50.950;11.762;2024-03-02T03:57:28;97284.16;;;5.97;100.00
17505;BME280;8870;50.950;11.762;2024-03-02T04:03:02;97285.81;;;5.98;100.00
17505;BME280;8870;50.950;11.762;2024-03-02T04:08:20;97291.19;;;5.98;100.00
17505;BME280;8870;50.950;11.762;2024-03-02T04:13:51;97301.19;;;5.96;100.00
17505;BME280;8870;50.950;11.762;2024-03-02T04:19:12;97306.00;;;5.92;100.00
17505;BME280;8870;50.950;11.762;2024-03-02T04:24:43;97307.53;;;5.95;100.00
17505;BME280;8870;50.950;11.762;2024-03-02T04:30:15;97300.19;;;5.97;100.00
17505;BME280;8870;50.950;11.762;2024-03-02T04:35:36;97314.41;;;5.97;100.00
17505;BME280;8870;50.950;11.762;2024-03-02T04:41:08;97308.84;;;5.91;100.00
17505;BME280;8870;50.950;11.762;2024-03-02T04:46:26;97314.13;;;5.82;100.00
17505;BME280;8870;50.950;11.762;2024-03-02T04:52:00;97312.50;;;5.81;100.00
17505;BME280;8870;50.950;11.762;2024-03-02T04:57:18;97316.50;;;5.85;100.00
17505;BME280;8870;50.950;11.762;2024-03-02T05:02:49;97321.84;;;5.85;100.00
17505;BME280;8870;50.950;11.762;2024-03-02T05:08:10;97322.72;;;5.86;100.00
17505;BME280;8870;50.950;11.762;2024-03-02T05:13:41;97324.22;;;5.89;100.00
17505;BME280;8870;50.950;11.762;2024-03-02T05:18:59;97324.72;;;5.92;100.00
17505;BME280;8870;50.950;11.762;2024-03-02T05:24:34;97333.94;;;5.98;100.00
17505;BME280;8870;50.950;11.762;2024-03-02T05:29:52;97328.00;;;6.04;100.00
17505;BME280;8870;50.950;11.762;2024-03-02T05:35:23;97321.50;;;6.07;100.00
17505;BME280;8870;50.950;11.762;2024-03-02T05:40:44;97328.34;;;6.09;100.00
17505;BME280;8870;50.950;11.762;2024-03-02T05:46:15;97332.53;;;6.12;100.00
17505;BME280;8870;50.950;11.762;2024-03-02T05:51:34;97339.56;;;6.13;100.00
17505;BME280;8870;50.950;11.762;2024-03-02T05:57:08;97342.09;;;6.14;100.00
17505;BME280;8870;50.950;11.762;2024-03-02T06:02:47;97345.44;;;6.16;100.00
17505;BME280;8870;50.950;11.762;2024-03-02T06:08:18;97349.94;;;6.16;100.00
17505;BME280;8870;50.950;11.762;2024-03-02T06:13:39;97348.47;;;6.22;100.00
17505;BME280;8870;50.950;11.762;2024-03-02T06:19:10;97347.16;;;6.26;100.00
17505;BME280;8870;50.950;11.762;2024-03-02T06:24:28;97355.69;;;6.29;100.00
17505;BME280;8870;50.950;11.762;2024-03-02T06:30:04;97351.72;;;6.34;100.00
17505;BME280;8870;50.950;11.762;2024-03-02T06:35:23;97351.91;;;6.40;100.00
17505;BME280;8870;50.950;11.762;2024-03-02T06:40:54;97357.09;;;6.50;100.00
17505;BME280;8870;50.950;11.762;2024-03-02T06:46:16;97372.03;;;6.61;100.00
17505;BME280;8870;50.950;11.762;2024-03-02T06:51:48;97366.38;;;6.72;100.00
17505;BME280;8870;50.950;11.762;2024-03-02T06:57:06;97372.44;;;6.83;100.00
17505;BME280;8870;50.950;11.762;2024-03-02T07:02:42;97374.13;;;6.92;100.00
17505;BME280;8870;50.950;11.762;2024-03-02T07:08:00;97380.34;;;7.01;100.00
17505;BME280;8870;50.950;11.762;2024-03-02T07:13:32;97383.88;;;7.09;100.00
17505;BME280;8870;50.950;11.762;2024-03-02T07:18:53;97384.06;;;7.16;100.00
17505;BME280;8870;50.950;11.762;2024-03-02T07:24:25;97387.75;;;7.23;100.00
17505;BME280;8870;50.950;11.762;2024-03-02T07:29:43;97386.91;;;7.31;100.00
17505;BME280;8870;50.950;11.762;2024-03-02T07:35:17;97391.28;;;7.40;100.00
17505;BME280;8870;50.950;11.762;2024-03-02T07:40:35;97381.53;;;7.48;100.00
17505;BME280;8870;50.950;11.762;2024-03-02T07:46:06;97393.78;;;7.59;100.00
17505;BME280;8870;50.950;11.762;2024-03-02T07:51:27;97400.00;;;7.67;100.00
17505;BME280;8870;50.950;11.762;2024-03-02T07:56:58;97405.16;;;7.77;100.00
17505;BME280;8870;50.950;11.762;2024-03-02T08:02:16;97406.84;;;7.86;100.00
17505;BME280;8870;50.950;11.762;2024-03-02T08:07:51;97403.97;;;7.96;100.00
17505;BME280;8870;50.950;11.762;2024-03-02T08:13:09;97411.84;;;8.06;100.00
17505;BME280;8870;50.950;11.762;2024-03-02T08:18:41;97398.41;;;8.14;100.00
17505;BME280;8870;50.950;11.762;2024-03-02T08:24:02;97399.91;;;8.25;100.00
17505;BME280;8870;50.950;11.762;2024-03-02T08:29:33;97403.22;;;8.36;100.00
17505;BME280;8870;50.950;11.762;2024-03-02T08:34:51;97398.00;;;8.42;100.00
17505;BME280;8870;50.950;11.762;2024-03-02T08:40:26;97394.31;;;8.52;100.00
17505;BME280;8870;50.950;11.762;2024-03-02T08:45:45;97407.53;;;8.53;100.00
17505;BME280;8870;50.950;11.762;2024-03-02T08:51:16;97408.34;;;8.62;100.00
17505;BME280;8870;50.950;11.762;2024-03-02T08:56:44;97407.50;;;8.70;100.00
17505;BME280;8870;50.950;11.762;2024-03-02T09:02:15;97416.69;;;8.75;100.00
17505;BME280;8870;50.950;11.762;2024-03-02T09:07:33;97409.94;;;8.88;100.00
17505;BME280;8870;50.950;11.762;2024-03-02T09:13:07;97421.09;;;9.08;100.00
17505;BME280;8870;50.950;11.762;2024-03-02T09:18:25;97415.38;;;9.11;100.00
17505;BME280;8870;50.950;11.762;2024-03-02T09:23:56;97418.81;;;9.20;100.00
17505;BME280;8870;50.950;11.762;2024-03-02T09:29:17;97424.28;;;9.35;100.00
17505;BME280;8870;50.950;11.762;2024-03-02T09:34:48;97416.31;;;9.41;100.00
17505;BME280;8870;50.950;11.762;2024-03-02T09:40:10;97427.69;;;9.52;100.00
17505;BME280;8870;50.950;11.762;2024-03-02T09:45:45;97432.78;;;9.70;100.00
17505;BME280;8870;50.950;11.762;2024-03-02T09:51:04;97430.00;;;9.78;100.00
17505;BME280;8870;50.950;11.762;2024-03-02T09:56:36;97433.75;;;9.92;100.00
17505;BME280;8870;50.950;11.762;2024-03-02T10:02:10;97429.97;;;10.01;100.00
17505;BME280;8870;50.950;11.762;2024-03-02T10:07:29;97434.78;;;10.06;100.00
17505;BME280;8870;50.950;11.762;2024-03-02T10:13:04;97430.06;;;10.08;100.00
17505;BME280;8870;50.950;11.762;2024-03-02T10:18:28;97429.34;;;10.14;100.00
17505;BME280;8870;50.950;11.762;2024-03-02T10:24:06;97424.19;;;10.28;100.00
17505;BME280;8870;50.950;11.762;2024-03-02T10:29:25;97415.84;;;10.38;100.00
17505;BME280;8870;50.950;11.762;2024-03-02T10:35:04;97418.63;;;10.44;100.00
17505;BME280;8870;50.950;11.762;2024-03-02T10:40:23;97421.53;;;10.58;100.00
17505;BME280;8870;50.950;11.762;2024-03-02T10:45:55;97426.44;;;10.54;100.00
17505;BME280;8870;50.950;11.762;2024-03-02T10:51:17;97418.63;;;10.59;100.00
17505;BME280;8870;50.950;11.762;2024-03-02T10:56:49;97414.34;;;10.65;100.00
17505;BME280;8870;50.950;11.762;2024-03-02T11:02:21;97410.06;;;10.71;100.00
17505;BME280;8870;50.950;11.762;2024-03-02T11:07:43;97403.19;;;10.83;100.00
17505;BME280;8870;50.950;11.762;2024-03-02T11:13:22;97383.09;;;11.01;100.00
17505;BME280;8870;50.950;11.762;2024-03-02T11:18:47;97382.59;;;11.12;100.00
17505;BME280;8870;50.950;11.762;2024-03-02T11:24:31;97390.25;;;11.30;100.00
17505;BME280;8870;50.950;11.762;2024-03-02T11:29:52;97384.22;;;11.28;100.00
17505;BME280;8870;50.950;11.762;2024-03-02T11:35:25;97371.38;;;11.30;100.00
17505;BME280;8870;50.950;11.762;2024-03-02T11:40:46;97365.34;;;11.28;100.00
17505;BME280;8870;50.950;11.762;2024-03-02T11:46:17;97359.59;;;11.31;100.00
17505;BME280;8870;50.950;11.762;2024-03-02T11:51:50;97352.00;;;11.41;100.00
17505;BME280;8870;50.950;11.762;2024-03-02T11:57:27;97356.88;;;11.53;100.00
17505;BME280;8870;50.950;11.762;2024-03-02T12:03:00;97350.56;;;11.67;100.00
17505;BME280;8870;50.950;11.762;2024-03-02T12:08:19;97343.63;;;11.80;100.00
17505;BME280;8870;50.950;11.762;2024-03-02T12:13:54;97326.16;;;12.04;100.00
17505;BME280;8870;50.950;11.762;2024-03-02T12:19:14;97316.16;;;12.33;100.00
17505;BME280;8870;50.950;11.762;2024-03-02T12:24:45;97314.81;;;12.57;100.00
17505;BME280;8870;50.950;11.762;2024-03-02T12:30:07;97310.94;;;12.80;100.00
17505;BME280;8870;50.950;11.762;2024-03-02T12:35:40;97313.50;;;13.02;100.00
17505;BME280;8870;50.950;11.762;2024-03-02T12:40:59;97319.56;;;13.17;100.00
17505;BME280;8870;50.950;11.762;2024-03-02T12:46:33;97310.91;;;13.42;100.00
17505;BME280;8870;50.950;11.762;2024-03-02T12:51:51;97297.38;;;13.69;100.00
17505;BME280;8870;50.950;11.762;2024-03-02T12:57:26;97287.34;;;14.03;100.00
17505;BME280;8870;50.950;11.762;2024-03-02T13:02:49;97276.22;;;14.31;100.00
17505;BME280;8870;50.950;11.762;2024-03-02T13:08:27;97277.78;;;14.53;100.00
17505;BME280;8870;50.950;11.762;2024-03-02T13:13:45;97269.19;;;14.69;100.00
17505;BME280;8870;50.950;11.762;2024-03-02T13:19:19;97267.22;;;14.90;100.00
17505;BME280;8870;50.950;11.762;2024-03-02T13:24:37;97273.44;;;15.29;100.00
17505;BME280;8870;50.950;11.762;2024-03-02T13:30:09;97261.84;;;15.66;100.00
17505;BME280;8870;50.950;11.762;2024-03-02T13:35:30;97252.06;;;15.90;100.00
17505;BME280;8870;50.950;11.762;2024-03-02T13:41:01;97267.44;;;15.96;100.00
17505;BME280;8870;50.950;11.762;2024-03-02T13:46:19;97252.59;;;15.99;100.00
17505;BME280;8870;50.950;11.762;2024-03-02T13:51:53;97251.53;;;16.18;100.00
17505;BME280;8870;50.950;11.762;2024-03-02T13:57:18;97254.94;;;16.32;100.00
17505;BME280;8870;50.950;11.762;2024-03-02T14:02:49;97241.28;;;16.21;100.00
17505;BME280;8870;50.950;11.762;2024-03-02T14:08:10;97247.41;;;16.16;100.00
17505;BME280;8870;50.950;11.762;2024-03-02T14:13:41;97241.66;;;16.24;100.00
17505;BME280;8870;50.950;11.762;2024-03-02T14:19:03;97246.31;;;16.54;100.00
17505;BME280;8870;50.950;11.762;2024-03-02T14:24:37;97232.81;;;16.78;100.00
17505;BME280;8870;50.950;11.762;2024-03-02T14:29:56;97233.22;;;16.93;100.00
17505;BME280;8870;50.950;11.762;2024-03-02T14:35:28;97242.09;;;17.19;100.00
17505;BME280;8870;50.950;11.762;2024-03-02T14:40:50;97233.16;;;17.54;100.00
17505;BME280;8870;50.950;11.762;2024-03-02T14:46:21;97231.25;;;17.67;100.00
17505;BME280;8870;50.950;11.762;2024-03-02T14:51:39;97222.84;;;17.80;100.00
17505;BME280;8870;50.950;11.762;2024-03-02T14:57:14;97216.34;;;17.81;100.00
17505;BME280;8870;50.950;11.762;2024-03-02T15:02:45;97210.16;;;17.74;100.00
17505;BME280;8870;50.950;11.762;2024-03-02T15:08:16;97211.94;;;17.68;100.00
17505;BME280;8870;50.950;11.762;2024-03-02T15:13:37;97209.69;;;17.65;100.00
17505;BME280;8870;50.950;11.762;2024-03-02T15:19:08;97210.88;;;17.69;100.00
17505;BME280;8870;50.950;11.762;2024-03-02T15:24:26;97206.84;;;17.36;100.00
17505;BME280;8870;50.950;11.762;2024-03-02T15:30:00;97205.25;;;17.05;100.00
17505;BME280;8870;50.950;11.762;2024-03-02T15:35:18;97205.22;;;16.62;100.00
17505;BME280;8870;50.950;11.762;2024-03-02T15:40:49;97204.50;;;16.18;100.00
17505;BME280;8870;50.950;11.762;2024-03-02T15:46:10;97205.28;;;15.88;100.00
17505;BME280;8870;50.950;11.762;2024-03-02T15:51:43;97208.75;;;15.51;100.00
17505;BME280;8870;50.950;11.762;2024-03-02T15:57:08;97205.59;;;15.29;100.00
17505;BME280;8870;50.950;11.762;2024-03-02T16:02:42;97205.94;;;15.14;100.00
17505;BME280;8870;50.950;11.762;2024-03-02T16:08:00;97205.22;;;14.93;100.00
17505;BME280;8870;50.950;11.762;2024-03-02T16:13:31;97204.22;;;14.88;100.00
17505;BME280;8870;50.950;11.762;2024-03-02T16:18:53;97205.88;;;14.89;100.00
17505;BME280;8870;50.950;11.762;2024-03-02T16:24:32;97201.13;;;14.84;100.00
17505;BME280;8870;50.950;11.762;2024-03-02T16:29:57;97203.28;;;14.75;100.00
17505;BME280;8870;50.950;11.762;2024-03-02T16:35:18;97204.59;;;14.53;100.00
17505;BME280;8870;50.950;11.762;2024-03-02T16:40:49;97202.91;;;14.20;100.00
17505;BME280;8870;50.950;11.762;2024-03-02T16:46:09;97213.88;;;13.79;100.00
17505;BME280;8870;50.950;11.762;2024-03-02T16:51:42;97213.69;;;13.27;100.00
17505;BME280;8870;50.950;11.762;2024-03-02T16:57:08;97227.38;;;12.85;100.00
17505;BME280;8870;50.950;11.762;2024-03-02T17:02:39;97216.47;;;12.45;100.00
17505;BME280;8870;50.950;11.762;2024-03-02T17:08:00;97216.38;;;12.18;100.00
17505;BME280;8870;50.950;11.762;2024-03-02T17:13:32;97227.22;;;11.90;100.00
17505;BME280;8870;50.950;11.762;2024-03-02T17:18:50;97228.97;;;11.69;100.00
17505;BME280;8870;50.950;11.762;2024-03-02T17:24:23;97234.63;;;11.46;100.00
17505;BME280;8870;50.950;11.762;2024-03-02T17:29:41;97236.97;;;11.27;100.00
17505;BME280;8870;50.950;11.762;2024-03-02T17:35:13;97242.66;;;11.10;100.00
17505;BME280;8870;50.950;11.762;2024-03-02T17:40:33;97243.28;;;10.91;100.00
17505;BME280;8870;50.950;11.762;2024-03-02T17:46:05;97248.94;;;10.74;100.00
17505;BME280;8870;50.950;11.762;2024-03-02T17:51:23;97255.84;;;10.62;100.00
17505;BME280;8870;50.950;11.762;2024-03-02T17:56:59;97259.69;;;10.38;100.00
17505;BME280;8870;50.950;11.762;2024-03-02T18:02:30;97259.91;;;10.21;100.00
17505;BME280;8870;50.950;11.762;2024-03-02T18:07:49;97267.59;;;10.09;100.00
17505;BME280;8870;50.950;11.762;2024-03-02T18:13:23;97268.16;;;10.05;100.00
17505;BME280;8870;50.950;11.762;2024-03-02T18:18:42;97270.75;;;9.98;100.00
17505;BME280;8870;50.950;11.762;2024-03-02T18:24:12;97271.22;;;9.86;100.00
17505;BME280;8870;50.950;11.762;2024-03-02T18:29:35;97274.66;;;9.80;100.00
17505;BME280;8870;50.950;11.762;2024-03-02T18:35:07;97266.41;;;9.67;100.00
17505;BME280;8870;50.950;11.762;2024-03-02T18:40:26;97267.66;;;9.56;100.00
17505;BME280;8870;50.950;11.762;2024-03-02T18:45:59;97269.59;;;9.47;100.00
17505;BME280;8870;50.950;11.762;2024-03-02T18:51:20;97271.56;;;9.38;100.00
17505;BME280;8870;50.950;11.762;2024-03-02T18:56:52;97273.53;;;9.21;100.00
17505;BME280;8870;50.950;11.762;2024-03-02T19:02:26;97278.38;;;9.03;100.00
17505;BME280;8870;50.950;11.762;2024-03-02T19:07:45;97279.94;;;8.97;100.00
17505;BME280;8870;50.950;11.762;2024-03-02T19:13:15;97273.16;;;8.86;100.00
17505;BME280;8870;50.950;11.762;2024-03-02T19:18:36;97267.19;;;8.76;100.00
17505;BME280;8870;50.950;11.762;2024-03-02T19:24:07;97274.44;;;8.67;100.00
17505;BME280;8870;50.950;11.762;2024-03-02T19:29:26;97275.50;;;8.58;100.00
17505;BME280;8870;50.950;11.762;2024-03-02T19:34:59;97273.03;;;8.48;100.00
17505;BME280;8870;50.950;11.762;2024-03-02T19:40:18;97279.06;;;8.42;100.00
17505;BME280;8870;50.950;11.762;2024-03-02T19:45:48;97269.38;;;8.32;100.00
17505;BME280;8870;50.950;11.762;2024-03-02T19:51:09;97271.13;;;8.25;100.00
17505;BME280;8870;50.950;11.762;2024-03-02T19:56:40;97280.03;;;8.17;100.00
17505;BME280;8870;50.950;11.762;2024-03-02T20:02:13;97271.34;;;8.07;100.00
17505;BME280;8870;50.950;11.762;2024-03-02T20:07:36;97270.22;;;8.01;100.00
17505;BME280;8870;50.950;11.762;2024-03-02T20:13:07;97263.50;;;7.97;100.00
17505;BME280;8870;50.950;11.762;2024-03-02T20:18:26;97264.69;;;7.95;100.00
17505;BME280;8870;50.950;11.762;2024-03-02T20:24:00;97255.31;;;7.91;100.00
17505;BME280;8870;50.950;11.762;2024-03-02T20:29:19;97253.00;;;7.88;100.00
17505;BME280;8870;50.950;11.762;2024-03-02T20:34:49;97242.13;;;7.81;100.00
17505;BME280;8870;50.950;11.762;2024-03-02T20:40:11;97237.09;;;7.78;100.00
17505;BME280;8870;50.950;11.762;2024-03-02T20:45:44;97218.19;;;7.71;100.00
17505;BME280;8870;50.950;11.762;2024-03-02T20:51:02;97208.34;;;7.63;100.00
17505;BME280;8870;50.950;11.762;2024-03-02T20:56:37;97211.38;;;7.52;100.00
17505;BME280;8870;50.950;11.762;2024-03-02T21:02:08;97202.88;;;7.40;100.00
17505;BME280;8870;50.950;11.762;2024-03-02T21:07:27;97203.25;;;7.29;100.00
17505;BME280;8870;50.950;11.762;2024-03-02T21:13:02;97199.06;;;7.18;100.00
17505;BME280;8870;50.950;11.762;2024-03-02T21:18:21;97191.72;;;7.03;100.00
17505;BME280;8870;50.950;11.762;2024-03-02T21:23:52;97201.44;;;6.96;100.00
17505;BME280;8870;50.950;11.762;2024-03-02T21:29:15;97204.13;;;6.88;100.00
17505;BME280;8870;50.950;11.762;2024-03-02T21:34:47;97200.94;;;6.76;100.00
17505;BME280;8870;50.950;11.762;2024-03-02T21:40:06;97200.44;;;6.64;100.00
17505;BME280;8870;50.950;11.762;2024-03-02T21:45:41;97198.75;;;6.55;100.00
17505;BME280;8870;50.950;11.762;2024-03-02T21:51:00;97200.75;;;6.53;100.00
17505;BME280;8870;50.950;11.762;2024-03-02T21:56:30;97196.25;;;6.53;100.00
17505;BME280;8870;50.950;11.762;2024-03-02T22:01:51;97195.75;;;6.50;100.00
17505;BME280;8870;50.950;11.762;2024-03-02T22:07:22;97187.03;;;6.47;100.00
17505;BME280;8870;50.950;11.762;2024-03-02T22:12:41;97174.84;;;6.45;100.00
17505;BME280;8870;50.950;11.762;2024-03-02T22:18:15;97170.50;;;6.44;100.00
17505;BME280;8870;50.950;11.762;2024-03-02T22:23:36;97170.66;;;6.42;100.00
17505;BME280;8870;50.950;11.762;2024-03-02T22:29:07;97164.47;;;6.42;100.00
17505;BME280;8870;50.950;11.762;2024-03-02T22:34:31;97170.00;;;6.40;100.00
17505;BME280;8870;50.950;11.762;2024-03-02T22:40:03;97160.44;;;6.38;100.00
17505;BME280;8870;50.950;11.762;2024-03-02T22:45:23;97159.94;;;6.34;100.00
17505;BME280;8870;50.950;11.762;2024-03-02T22:50:57;97156.78;;;6.30;100.00
17505;BME280;8870;50.950;11.762;2024-03-02T22:56:22;97163.63;;;6.33;100.00
17505;BME280;8870;50.950;11.762;2024-03-02T23:01:53;97152.09;;;6.32;100.00
17505;BME280;8870;50.950;11.762;2024-03-02T23:07:15;97143.22;;;6.32;100.00
17505;BME280;8870;50.950;11.762;2024-03-02T23:12:47;97138.88;;;6.31;100.00
17505;BME280;8870;50.950;11.762;2024-03-02T23:18:05;97151.91;;;6.34;100.00
17505;BME280;8870;50.950;11.762;2024-03-02T23:23:39;97145.41;;;6.37;100.00
17505;BME280;8870;50.950;11.762;2024-03-02T23:28:59;97134.19;;;6.33;100.00
17505;BME280;8870;50.950;11.762;2024-03-02T23:34:30;97139.03;;;6.29;100.00
17505;BME280;8870;50.950;11.762;2024-03-02T23:39:51;97129.03;;;6.31;100.00
17505;BME280;8870;50.950;11.762;2024-03-02T23:45:43;97129.16;;;6.30;100.00
17505;BME280;8870;50.950;11.762;2024-03-02T23:51:01;97121.50;;;6.27;100.00
17505;BME280;8870;50.950;11.762;2024-03-02T23:56:34;97135.03;;;6.25;100.00
